Terminal Aerodrome Forecast
Issued by NWS Mt. Holly, NJ

Home | Current Version | Previous Version | Text Only | Print | Product List | Glossary On
Versions: 1 2 3 4 5 6 7 8 9 10 11 12 13 14 15 16 17 18 19 20 21 22 23 24 25 26 27 28 29 30 31 32 33 34 35 36 37 38 39 40
000
FTAK31 PANC 011606 AAA
TAFABE
TAF AMD
PABE 011606Z 0116/0212 24008KT 3SM -RA BR OVC003
      TEMPO 0116/0118 1 1/2SM -RA BR OVC005
     FM012000 22008KT 4SM -RA BR BKN004
     FM012200 20008KT P6SM VCFG SCT004 BKN010
     FM020600 25006KT 2SM BR BKN005=

USA.gov is the U.S. government's official web portal to all federal, state and local government web resources and services.